createdAt,value
2023-02-16T00:01:26.877Z,0.83
2023-02-16T00:03:55.996Z,3.13
2023-02-16T00:06:26.289Z,0.50
2023-02-16T00:08:56.324Z,0.67
2023-02-16T00:11:46.818Z,0.43
2023-02-16T00:14:15.930Z,2.03
2023-02-16T00:16:44.202Z,2.93
2023-02-16T00:19:22.356Z,1.93
2023-02-16T00:21:54.043Z,2.30
2023-02-16T00:24:22.623Z,0.97
2023-02-16T00:26:51.091Z,2.07
2023-02-16T00:29:23.875Z,4.97
2023-02-16T00:31:52.464Z,0.70
2023-02-16T00:34:33.057Z,3.20
2023-02-16T00:37:04.003Z,0.43
2023-02-16T00:39:32.373Z,1.93
2023-02-16T00:42:02.798Z,2.83
2023-02-16T00:44:34.010Z,1.57
2023-02-16T00:47:05.508Z,0.97
2023-02-16T00:49:33.816Z,1.40
2023-02-16T00:52:03.625Z,1.57
2023-02-16T00:54:32.248Z,1.27
2023-02-16T00:57:00.746Z,0.63
2023-02-16T00:59:29.243Z,1.30
2023-02-16T01:01:58.386Z,1.03
2023-02-16T01:04:26.746Z,1.10
2023-02-16T01:07:12.704Z,1.80
2023-02-16T01:10:10.836Z,1.47
2023-02-16T01:12:39.130Z,1.90
2023-02-16T01:15:11.242Z,2.03
2023-02-16T01:17:39.538Z,2.83
2023-02-16T01:20:15.843Z,1.27
2023-02-16T01:22:44.125Z,3.17
2023-02-16T01:25:14.190Z,1.83
2023-02-16T01:27:43.017Z,0.50
2023-02-16T01:30:15.392Z,1.70
2023-02-16T01:32:47.375Z,0.93
2023-02-16T01:35:15.716Z,2.13
2023-02-16T01:37:43.997Z,2.57
2023-02-16T01:40:24.125Z,0.93
2023-02-16T01:42:55.974Z,3.00
2023-02-16T01:45:33.931Z,0.77
2023-02-16T01:48:05.132Z,1.33
2023-02-16T01:50:44.038Z,0.80
2023-02-16T01:53:22.046Z,1.10
2023-02-16T01:55:59.229Z,2.17
2023-02-16T01:58:40.843Z,1.27
2023-02-16T02:01:53.777Z,2.07
2023-02-16T02:04:44.183Z,0.10
2023-02-16T02:07:20.657Z,1.73
2023-02-16T02:09:57.481Z,1.43
2023-02-16T02:12:33.458Z,2.40
2023-02-16T02:15:01.715Z,1.10
2023-02-16T02:17:30.504Z,0.50
2023-02-16T02:20:07.032Z,0.37
2023-02-16T02:23:33.226Z,1.47
2023-02-16T02:26:37.174Z,1.87
2023-02-16T02:29:21.446Z,1.80
2023-02-16T02:31:54.793Z,0.77
2023-02-16T02:34:34.577Z,2.37
2023-02-16T02:37:11.243Z,2.23
2023-02-16T02:39:52.932Z,2.37
2023-02-16T02:42:26.311Z,1.90
2023-02-16T02:44:59.158Z,1.10
2023-02-16T02:47:41.878Z,0.00
2023-02-16T02:51:13.207Z,1.40
2023-02-16T02:53:45.387Z,0.33
2023-02-16T02:56:34.627Z,0.97
2023-02-16T02:59:25.812Z,1.90
2023-02-16T03:02:00.285Z,2.27
2023-02-16T03:04:32.287Z,1.23
2023-02-16T03:07:00.841Z,1.70
2023-02-16T03:09:29.396Z,2.33
2023-02-16T03:12:16.797Z,0.83
2023-02-16T03:14:48.803Z,2.90
2023-02-16T03:17:39.618Z,1.60
2023-02-16T03:20:29.774Z,0.27
2023-02-16T03:23:16.272Z,1.00
2023-02-16T03:26:03.428Z,1.83
2023-02-16T03:28:51.717Z,2.80
2023-02-16T03:31:23.004Z,1.07
2023-02-16T03:33:54.848Z,2.53
2023-02-16T03:36:23.609Z,1.80
2023-02-16T03:38:52.326Z,0.87
2023-02-16T03:41:20.651Z,0.93
2023-02-16T03:43:48.655Z,0.87
2023-02-16T03:46:16.957Z,1.30
2023-02-16T03:48:44.940Z,0.47
2023-02-16T03:51:14.265Z,1.63
2023-02-16T03:53:42.735Z,1.90
2023-02-16T03:56:11.209Z,3.00
2023-02-16T03:58:39.510Z,0.53
2023-02-16T04:01:07.756Z,2.40
2023-02-16T04:03:36.084Z,1.70
2023-02-16T04:06:04.402Z,2.23
2023-02-16T04:08:33.928Z,2.00
2023-02-16T04:11:22.294Z,1.50
2023-02-16T04:14:09.596Z,2.77
2023-02-16T04:16:57.843Z,1.07
2023-02-16T04:19:38.485Z,1.13
2023-02-16T04:22:26.770Z,1.40
2023-02-16T04:25:17.465Z,0.93
2023-02-16T04:27:46.657Z,2.33
2023-02-16T04:30:16.819Z,1.80
2023-02-16T04:32:45.342Z,1.47
2023-02-16T04:35:13.702Z,2.40
2023-02-16T04:37:42.012Z,1.23
2023-02-16T04:40:13.580Z,1.47
2023-02-16T04:42:43.659Z,3.60
2023-02-16T04:45:12.152Z,0.50
2023-02-16T04:47:40.473Z,2.03
2023-02-16T04:50:09.518Z,1.33
2023-02-16T04:52:37.895Z,2.30
2023-02-16T04:55:07.382Z,1.50
2023-02-16T04:57:35.780Z,1.77
2023-02-16T05:00:06.110Z,1.07
2023-02-16T05:02:34.302Z,1.13
2023-02-16T05:05:02.965Z,2.73
2023-02-16T05:07:31.244Z,4.83
2023-02-16T05:09:59.533Z,2.97
2023-02-16T05:12:45.273Z,1.40
2023-02-16T05:15:14.887Z,1.93
2023-02-16T05:17:43.302Z,1.07
2023-02-16T05:20:12.909Z,2.07
2023-02-16T05:22:41.212Z,2.03
2023-02-16T05:25:09.450Z,0.60
2023-02-16T05:27:37.403Z,1.33
2023-02-16T05:30:05.964Z,0.97
2023-02-16T05:32:35.439Z,1.43
2023-02-16T05:35:03.733Z,1.03
2023-02-16T05:37:31.747Z,0.60
2023-02-16T05:40:00.044Z,1.13
2023-02-16T05:42:28.369Z,0.30
2023-02-16T05:44:56.635Z,1.83
2023-02-16T05:47:24.886Z,1.70
2023-02-16T05:49:54.281Z,1.80
2023-02-16T05:52:22.589Z,1.50
2023-02-16T05:54:51.247Z,3.40
2023-02-16T05:57:19.576Z,3.00
2023-02-16T05:59:47.564Z,1.27
2023-02-16T06:02:15.951Z,1.33
2023-02-16T06:04:44.301Z,2.00
2023-02-16T06:07:14.977Z,1.00
2023-02-16T06:09:43.072Z,0.83
2023-02-16T06:12:11.401Z,1.10
2023-02-16T06:14:39.781Z,0.60
2023-02-16T06:17:08.072Z,0.47
2023-02-16T06:19:36.353Z,0.50
2023-02-16T06:22:04.627Z,1.40
2023-02-16T06:24:34.064Z,1.53
2023-02-16T06:27:02.071Z,1.77
2023-02-16T06:29:30.437Z,1.50
2023-02-16T06:31:58.932Z,1.83
2023-02-16T06:34:27.361Z,2.50
2023-02-16T06:36:55.632Z,1.63
2023-02-16T06:39:23.917Z,2.10
2023-02-16T06:41:53.580Z,2.77
2023-02-16T06:44:21.973Z,2.30
2023-02-16T06:46:50.422Z,2.23
2023-02-16T06:49:20.836Z,2.03
2023-02-16T06:51:49.624Z,1.47
2023-02-16T06:54:18.076Z,3.77
2023-02-16T06:56:46.511Z,3.03
2023-02-16T06:59:16.083Z,2.93
2023-02-16T07:01:45.476Z,2.17
2023-02-16T07:04:14.089Z,2.43
2023-02-16T07:06:42.760Z,1.07
2023-02-16T07:09:12.740Z,2.43
2023-02-16T07:11:41.091Z,0.77
2023-02-16T07:14:09.681Z,1.63
2023-02-16T07:16:39.073Z,0.07
2023-02-16T07:19:07.416Z,2.47
2023-02-16T07:21:35.847Z,0.47
2023-02-16T07:24:04.407Z,2.10
2023-02-16T07:26:32.872Z,0.77
2023-02-16T07:29:01.305Z,2.23
2023-02-16T07:31:29.899Z,1.87
2023-02-16T07:33:59.358Z,3.60
2023-02-16T07:36:27.697Z,2.03
2023-02-16T07:38:55.775Z,3.80
2023-02-16T07:41:24.069Z,1.47
2023-02-16T07:43:52.394Z,3.73
2023-02-16T07:46:20.726Z,3.40
2023-02-16T07:48:49.667Z,1.83
2023-02-16T07:51:24.303Z,1.83
2023-02-16T07:53:53.029Z,6.20
2023-02-16T07:56:22.080Z,4.20
2023-02-16T07:58:50.375Z,2.40
2023-02-16T08:01:18.685Z,1.50
2023-02-16T08:03:47.169Z,2.27
2023-02-16T08:06:15.543Z,3.53
2023-02-16T08:08:45.113Z,2.70
2023-02-16T08:11:15.098Z,3.63
2023-02-16T08:13:43.954Z,1.97
2023-02-16T08:16:14.876Z,2.27
2023-02-16T08:18:43.235Z,4.43
2023-02-16T08:21:14.830Z,2.43
2023-02-16T08:23:47.385Z,1.13
2023-02-16T08:26:18.650Z,2.33
2023-02-16T08:28:48.146Z,0.77
2023-02-16T08:31:18.914Z,1.57
2023-02-16T08:33:47.909Z,3.10
2023-02-16T08:36:19.498Z,0.43
2023-02-16T08:38:50.671Z,2.60
2023-02-16T08:41:19.126Z,2.90
2023-02-16T08:43:47.661Z,0.97
2023-02-16T08:46:16.221Z,2.40
2023-02-16T08:48:45.394Z,2.87
2023-02-16T08:51:15.605Z,2.20
2023-02-16T08:53:44.145Z,2.30
2023-02-16T08:56:14.345Z,1.17
2023-02-16T08:58:42.657Z,2.47
2023-02-16T09:01:12.765Z,2.13
2023-02-16T09:03:42.715Z,1.43
2023-02-16T09:06:12.535Z,2.53
2023-02-16T09:08:41.148Z,1.37
2023-02-16T09:11:12.312Z,2.60
2023-02-16T09:13:43.457Z,2.93
2023-02-16T09:16:13.921Z,2.90
2023-02-16T09:18:42.343Z,3.00
2023-02-16T09:21:12.288Z,1.57
2023-02-16T09:23:41.391Z,3.77
2023-02-16T09:26:11.385Z,1.70
2023-02-16T09:28:39.916Z,4.43
2023-02-16T09:31:13.981Z,2.93
2023-02-16T09:33:43.633Z,2.27
2023-02-16T09:36:13.821Z,1.83
2023-02-16T09:38:43.175Z,1.60
2023-02-16T09:41:22.782Z,1.93
2023-02-16T09:43:57.241Z,3.77
2023-02-16T09:46:30.142Z,4.00
2023-02-16T09:48:58.953Z,2.73
2023-02-16T09:51:34.885Z,4.50
2023-02-16T09:54:16.309Z,2.53
2023-02-16T09:56:50.487Z,4.70
2023-02-16T09:59:33.143Z,2.07
2023-02-16T10:02:22.398Z,2.47
2023-02-16T10:05:03.418Z,1.60
2023-02-16T10:07:40.718Z,4.60
2023-02-16T10:10:10.094Z,2.60
2023-02-16T10:12:42.229Z,5.53
2023-02-16T10:15:16.663Z,3.83
2023-02-16T10:17:49.782Z,3.67
2023-02-16T10:20:24.258Z,4.57
2023-02-16T10:22:56.187Z,4.73
2023-02-16T10:25:30.490Z,6.23
2023-02-16T10:28:09.646Z,3.75
2023-02-16T10:30:37.837Z,5.38
2023-02-16T10:33:16.517Z,4.80
2023-02-16T10:35:47.916Z,4.78
2023-02-16T10:38:23.182Z,5.97
2023-02-16T10:40:58.908Z,3.60
2023-02-16T10:43:39.399Z,2.95
2023-02-16T10:46:07.926Z,4.07
2023-02-16T10:48:37.532Z,3.40
2023-02-16T10:51:10.228Z,4.13
2023-02-16T10:53:43.736Z,5.97
2023-02-16T10:56:46.448Z,3.13
2023-02-16T10:59:17.620Z,3.90
2023-02-16T11:01:48.011Z,4.82
2023-02-16T11:04:40.438Z,5.18
2023-02-16T11:07:10.838Z,4.78
2023-02-16T11:09:40.242Z,5.22
2023-02-16T11:12:34.193Z,5.85
2023-02-16T11:15:06.070Z,4.85
2023-02-16T11:17:50.098Z,4.07
2023-02-16T11:20:29.571Z,8.23
2023-02-16T11:23:15.438Z,5.32
2023-02-16T11:25:43.852Z,6.68
2023-02-16T11:28:12.459Z,6.43
2023-02-16T11:30:43.319Z,6.85
2023-02-16T11:33:23.442Z,7.22
2023-02-16T11:35:53.044Z,8.07
2023-02-16T11:38:33.482Z,5.82
2023-02-16T11:41:04.222Z,6.63
2023-02-16T11:43:35.924Z,3.97
2023-02-16T11:46:06.615Z,4.47
2023-02-16T11:48:35.143Z,5.20
2023-02-16T11:51:06.898Z,5.80
2023-02-16T11:53:36.703Z,5.43
2023-02-16T11:56:14.394Z,4.95
2023-02-16T11:58:42.882Z,6.07
2023-02-16T12:01:39.906Z,5.43
2023-02-16T12:04:22.327Z,5.13
2023-02-16T12:07:05.019Z,5.85
2023-02-16T12:09:39.554Z,5.30
2023-02-16T12:12:13.907Z,4.22
2023-02-16T12:14:49.084Z,4.85
2023-02-16T12:17:27.931Z,4.28
2023-02-16T12:20:03.566Z,6.15
2023-02-16T12:22:40.676Z,5.40
2023-02-16T12:25:26.134Z,5.47
2023-02-16T12:28:00.160Z,5.07
2023-02-16T12:30:41.805Z,4.55
2023-02-16T12:33:21.990Z,4.90
2023-02-16T12:36:04.122Z,4.45
2023-02-16T12:38:48.202Z,4.07
2023-02-16T12:41:26.301Z,2.78
2023-02-16T12:43:58.451Z,4.47
2023-02-16T12:46:30.733Z,4.53
2023-02-16T12:49:02.703Z,4.88
2023-02-16T12:51:36.710Z,4.10
2023-02-16T12:54:14.242Z,4.97
2023-02-16T12:56:46.068Z,3.92
2023-02-16T12:59:22.550Z,4.90
2023-02-16T13:01:53.506Z,5.10
2023-02-16T13:04:27.304Z,5.88
2023-02-16T13:07:00.395Z,4.40
2023-02-16T13:09:41.282Z,3.72
2023-02-16T13:12:17.195Z,3.92
2023-02-16T13:15:02.195Z,3.97
2023-02-16T13:17:35.607Z,5.18
2023-02-16T13:20:04.893Z,4.43
2023-02-16T13:22:57.580Z,5.60
2023-02-16T13:25:44.578Z,3.53
2023-02-16T13:28:31.568Z,3.88
2023-02-16T13:31:18.949Z,4.50
2023-02-16T13:34:08.549Z,4.72
2023-02-16T13:36:59.881Z,3.15
2023-02-16T13:39:52.230Z,4.82
2023-02-16T13:42:46.043Z,2.72
2023-02-16T13:45:17.640Z,3.13
2023-02-16T13:47:46.282Z,4.15
2023-02-16T13:50:29.142Z,4.00
2023-02-16T13:52:58.644Z,3.95
2023-02-16T13:55:31.078Z,3.78
2023-02-16T13:58:27.181Z,3.08
2023-02-16T14:00:55.928Z,5.10
2023-02-16T14:03:40.780Z,5.43
2023-02-16T14:06:37.272Z,6.15
2023-02-16T14:09:34.923Z,4.80
2023-02-16T14:12:17.611Z,4.68
2023-02-16T14:15:01.724Z,7.28
2023-02-16T14:17:32.947Z,8.35
2023-02-16T14:20:16.078Z,6.50
2023-02-16T14:23:01.357Z,10.48
2023-02-16T14:25:41.024Z,4.55
2023-02-16T14:28:48.161Z,4.43
2023-02-16T14:31:53.500Z,3.33
2023-02-16T14:34:29.331Z,3.78
2023-02-16T16:20:44.601Z,2.20
2023-02-16T16:23:27.001Z,2.05
2023-02-16T16:25:56.064Z,1.27
2023-02-16T16:28:35.828Z,2.60
2023-02-16T16:31:09.490Z,1.58
2023-02-16T16:33:53.509Z,2.15
2023-02-16T16:36:28.281Z,2.97
2023-02-16T16:39:21.234Z,5.20
2023-02-16T16:42:26.036Z,6.00
2023-02-16T16:45:05.509Z,3.53
2023-02-16T16:47:37.328Z,3.75
2023-02-16T16:50:27.918Z,4.95
2023-02-16T16:52:58.088Z,5.20
2023-02-16T16:55:30.422Z,7.75
2023-02-16T16:58:00.210Z,4.30
2023-02-16T17:00:34.091Z,3.45
2023-02-16T17:03:04.161Z,3.33
2023-02-16T17:05:32.580Z,2.65
2023-02-16T17:08:01.954Z,5.03
2023-02-16T17:10:30.108Z,1.87
2023-02-16T17:13:00.749Z,3.10
2023-02-16T17:15:34.559Z,3.83
2023-02-16T17:18:03.292Z,3.00
2023-02-16T17:20:31.351Z,2.42
2023-02-16T17:23:04.649Z,2.77
2023-02-16T17:25:34.260Z,4.22
2023-02-16T17:28:02.913Z,2.43
2023-02-16T17:30:31.597Z,2.37
2023-02-16T17:33:00.055Z,1.47
2023-02-16T17:35:28.802Z,2.50
2023-02-16T17:37:56.777Z,2.13
2023-02-16T17:40:27.085Z,5.00
2023-02-16T17:42:55.071Z,2.37
2023-02-16T17:45:23.477Z,1.90
2023-02-16T17:47:53.105Z,1.87
2023-02-16T17:50:22.059Z,1.60
2023-02-16T17:52:50.146Z,1.27
2023-02-16T17:55:18.558Z,2.07
2023-02-16T17:57:47.963Z,1.53
2023-02-16T18:00:20.432Z,2.03
2023-02-16T18:02:48.786Z,2.20
2023-02-16T18:05:17.113Z,1.33
2023-02-16T18:07:45.357Z,3.73
2023-02-16T18:10:19.534Z,3.07
2023-02-16T18:12:48.966Z,1.97
2023-02-16T18:15:17.260Z,1.60
2023-02-16T18:17:45.524Z,1.87
2023-02-16T18:20:16.340Z,3.73
2023-02-16T18:22:44.650Z,5.60
2023-02-16T18:25:13.018Z,2.70
2023-02-16T18:27:41.308Z,2.40
2023-02-16T18:30:12.270Z,0.37
2023-02-16T18:32:41.877Z,2.90
2023-02-16T18:35:10.772Z,2.83
2023-02-16T18:37:39.516Z,2.00
2023-02-16T18:40:08.575Z,3.20
2023-02-16T18:42:37.486Z,1.37
2023-02-16T18:45:06.855Z,3.83
2023-02-16T18:47:45.403Z,3.47
2023-02-16T18:50:13.949Z,3.60
2023-02-16T18:52:43.416Z,2.10
2023-02-16T18:55:12.082Z,2.07
2023-02-16T18:57:40.446Z,2.53
2023-02-16T19:00:10.770Z,1.33
2023-02-16T19:02:41.030Z,1.73
2023-02-16T19:05:09.767Z,2.03
2023-02-16T19:07:38.132Z,2.40
2023-02-16T19:10:08.345Z,4.23
2023-02-16T19:12:36.643Z,2.33
2023-02-16T19:15:05.179Z,3.30
2023-02-16T19:17:33.481Z,3.47
2023-02-16T19:20:03.040Z,2.20
2023-02-16T19:22:33.727Z,3.87
2023-02-16T19:25:02.072Z,2.17
2023-02-16T19:27:30.063Z,3.63
2023-02-16T19:29:58.409Z,2.23
2023-02-16T19:32:26.862Z,1.77
2023-02-16T19:34:55.194Z,2.80
2023-02-16T19:37:24.678Z,1.40
2023-02-16T19:39:53.224Z,2.80
2023-02-16T19:42:21.615Z,1.17
2023-02-16T19:44:49.979Z,2.57
2023-02-16T19:47:18.278Z,2.17
2023-02-16T19:49:46.813Z,2.30
2023-02-16T19:52:15.247Z,3.93
2023-02-16T19:54:44.803Z,2.47
2023-02-16T19:57:13.129Z,2.90
2023-02-16T19:59:41.563Z,2.77
2023-02-16T20:02:11.846Z,1.73
2023-02-16T20:04:40.236Z,2.23
2023-02-16T20:07:09.735Z,2.90
2023-02-16T20:09:38.450Z,2.27
2023-02-16T20:12:08.209Z,2.77
2023-02-16T20:14:36.971Z,2.00
2023-02-16T20:17:05.368Z,0.70
2023-02-16T20:19:33.744Z,2.33
2023-02-16T20:22:02.024Z,1.77
2023-02-16T20:24:30.489Z,3.33
2023-02-16T20:27:03.899Z,2.03
2023-02-16T20:29:33.645Z,2.00
2023-02-16T20:32:02.155Z,2.37
2023-02-16T20:34:30.566Z,2.90
2023-02-16T20:36:58.999Z,1.17
2023-02-16T20:39:27.759Z,1.77
2023-02-16T20:41:58.207Z,2.33
2023-02-16T20:44:26.565Z,2.53
2023-02-16T20:46:56.074Z,1.03
2023-02-16T20:49:24.468Z,0.90
2023-02-16T20:51:52.761Z,2.80
2023-02-16T20:54:21.261Z,1.97
2023-02-16T20:56:49.597Z,1.97
2023-02-16T20:59:18.008Z,2.30
2023-02-16T21:01:47.533Z,3.43
2023-02-16T21:04:19.031Z,0.97
2023-02-16T21:06:47.629Z,1.70
2023-02-16T21:09:15.952Z,0.93
2023-02-16T21:11:44.393Z,3.30
2023-02-16T21:14:13.293Z,2.37
2023-02-16T21:16:41.928Z,2.10
2023-02-16T21:19:21.256Z,1.40
2023-02-16T21:21:53.065Z,1.73
2023-02-16T21:24:21.437Z,0.90
2023-02-16T21:26:49.761Z,2.13
2023-02-16T21:29:18.275Z,1.87
2023-02-16T21:31:46.711Z,1.70
2023-02-16T21:34:15.194Z,2.30
2023-02-16T21:36:44.362Z,1.97
2023-02-16T21:39:13.809Z,2.73
2023-02-16T21:41:41.153Z,0.90
2023-02-16T21:44:10.999Z,1.90
2023-02-16T21:46:40.569Z,2.00
2023-02-16T21:49:09.322Z,0.83
2023-02-16T21:51:39.370Z,0.50
2023-02-16T21:54:08.003Z,0.83
2023-02-16T21:56:38.987Z,3.47
2023-02-16T21:59:09.540Z,3.53
2023-02-16T22:01:40.176Z,2.73
2023-02-16T22:04:08.639Z,1.93
2023-02-16T22:06:39.879Z,2.63
2023-02-16T22:09:09.665Z,2.77
2023-02-16T22:11:39.876Z,1.10
2023-02-16T22:14:08.448Z,1.83
2023-02-16T22:16:38.020Z,0.93
2023-02-16T22:19:07.984Z,1.10
2023-02-16T22:21:36.618Z,3.80
2023-02-16T22:24:04.985Z,1.43
2023-02-16T22:26:35.593Z,1.97
2023-02-16T22:29:08.265Z,1.27
2023-02-16T22:31:37.049Z,1.73
2023-02-16T22:34:07.421Z,2.13
2023-02-16T22:36:36.011Z,0.70
2023-02-16T22:39:04.338Z,0.73
2023-02-16T22:41:32.654Z,2.80
2023-02-16T22:44:00.748Z,1.63
2023-02-16T22:46:31.215Z,1.90
2023-02-16T22:48:59.958Z,1.47
2023-02-16T22:51:29.811Z,1.97
2023-02-16T22:53:59.616Z,3.07
2023-02-16T22:56:28.004Z,1.50
2023-02-16T22:58:57.789Z,1.70
2023-02-16T23:01:28.250Z,1.90
2023-02-16T23:03:59.490Z,1.00
2023-02-16T23:06:30.159Z,2.00
2023-02-16T23:08:59.573Z,1.47
2023-02-16T23:11:28.716Z,3.73
2023-02-16T23:13:56.996Z,0.47
2023-02-16T23:16:26.782Z,2.80
2023-02-16T23:18:58.468Z,4.17
2023-02-16T23:21:28.743Z,2.00
2023-02-16T23:23:57.157Z,2.60
2023-02-16T23:26:26.890Z,1.57
2023-02-16T23:28:56.385Z,3.07
2023-02-16T23:31:24.912Z,0.63
2023-02-16T23:33:53.400Z,1.13
2023-02-16T23:36:22.799Z,1.33
2023-02-16T23:38:51.111Z,2.40
2023-02-16T23:41:19.730Z,1.97
2023-02-16T23:43:47.671Z,1.00
2023-02-16T23:46:16.079Z,2.43
2023-02-16T23:48:44.369Z,2.57
2023-02-16T23:51:12.373Z,2.23
2023-02-16T23:53:41.832Z,3.17
2023-02-16T23:56:13.575Z,2.30
2023-02-16T23:58:45.078Z,1.10
